createdAt,value
2018-05-03T00:00:17.398Z,9.20
2018-05-03T00:02:44.842Z,8.80
2018-05-03T00:05:12.288Z,9.17
2018-05-03T00:07:39.750Z,8.93
2018-05-03T00:10:07.183Z,9.17
2018-05-03T00:12:34.720Z,8.77
2018-05-03T00:15:02.088Z,8.77
2018-05-03T00:17:29.532Z,8.80
2018-05-03T00:19:56.974Z,8.60
2018-05-03T00:22:24.482Z,8.80
2018-05-03T00:24:51.956Z,9.27
2018-05-03T00:27:19.407Z,8.90
2018-05-03T00:29:46.869Z,8.80
2018-05-03T00:32:14.342Z,8.20
2018-05-03T00:34:41.796Z,9.13
2018-05-03T00:37:09.243Z,8.57
2018-05-03T00:39:36.700Z,9.07
2018-05-03T00:42:04.158Z,10.03
2018-05-03T00:44:31.595Z,8.80
2018-05-03T00:46:59.042Z,8.50
2018-05-03T00:49:26.495Z,8.20
2018-05-03T00:51:53.984Z,8.83
2018-05-03T00:54:33.286Z,8.53
2018-05-03T00:57:01.478Z,8.27
2018-05-03T00:59:28.941Z,8.50
2018-05-03T01:01:56.374Z,9.53
2018-05-03T01:04:23.847Z,8.73
2018-05-03T01:06:51.291Z,8.10
2018-05-03T01:09:18.750Z,7.87
2018-05-03T01:11:46.975Z,9.20
2018-05-03T01:14:14.458Z,9.40
2018-05-03T01:16:41.901Z,8.37
2018-05-03T01:19:09.355Z,8.70
2018-05-03T01:21:36.809Z,7.90
2018-05-03T01:24:04.263Z,8.40
2018-05-03T01:26:31.870Z,7.97
2018-05-03T01:28:59.376Z,8.60
2018-05-03T01:31:26.826Z,8.40
2018-05-03T01:33:54.286Z,9.90
2018-05-03T01:36:27.375Z,8.43
2018-05-03T01:38:54.809Z,8.10
2018-05-03T01:41:22.258Z,8.70
2018-05-03T01:43:49.682Z,9.20
2018-05-03T01:46:17.146Z,8.70
2018-05-03T01:48:44.571Z,8.10
2018-05-03T01:51:12.042Z,8.27
2018-05-03T01:53:39.497Z,8.80
2018-05-03T01:56:06.958Z,8.67
2018-05-03T01:58:34.415Z,9.13
2018-05-03T02:01:01.858Z,8.80
2018-05-03T02:03:29.290Z,9.07
2018-05-03T02:05:56.772Z,9.37
2018-05-03T02:08:24.210Z,8.83
2018-05-03T02:10:51.715Z,12.93
2018-05-03T02:13:19.194Z,8.07
2018-05-03T02:15:46.646Z,8.83
2018-05-03T02:18:14.073Z,8.40
2018-05-03T02:20:41.523Z,7.90
2018-05-03T02:23:08.995Z,9.30
2018-05-03T02:25:36.443Z,11.50
2018-05-03T02:28:03.893Z,8.30
2018-05-03T02:30:31.331Z,9.93
2018-05-03T02:32:58.777Z,8.90
2018-05-03T02:35:26.222Z,8.60
2018-05-03T02:37:53.671Z,9.07
2018-05-03T02:40:21.173Z,9.23
2018-05-03T02:42:48.610Z,8.40
2018-05-03T02:45:16.072Z,8.90
2018-05-03T02:47:43.521Z,9.10
2018-05-03T02:50:10.968Z,8.47
2018-05-03T02:52:38.401Z,9.20
2018-05-03T02:55:05.858Z,8.83
2018-05-03T02:57:50.755Z,9.27
2018-05-03T03:00:45.910Z,8.97
2018-05-03T03:03:30.789Z,9.13
2018-05-03T03:06:10.766Z,9.00
2018-05-03T03:08:59.718Z,9.13
2018-05-03T03:11:58.386Z,8.37
2018-05-03T03:14:43.333Z,8.63
2018-05-03T03:17:28.408Z,9.03
2018-05-03T03:20:13.354Z,8.47
2018-05-03T03:22:58.352Z,8.13
2018-05-03T03:25:46.324Z,8.50
2018-05-03T03:28:31.214Z,7.93
2018-05-03T03:31:16.224Z,8.73
2018-05-03T03:34:16.065Z,8.60
2018-05-03T03:37:04.855Z,9.50
2018-05-03T03:39:44.053Z,9.33
2018-05-03T03:42:32.198Z,8.77
2018-05-03T03:44:59.646Z,8.60
2018-05-03T03:47:27.104Z,9.43
2018-05-03T03:49:54.542Z,8.40
2018-05-03T03:52:21.976Z,8.50
2018-05-03T03:54:49.418Z,8.63
2018-05-03T03:57:16.876Z,8.47
2018-05-03T03:59:44.326Z,8.80
2018-05-03T04:02:11.779Z,8.90
2018-05-03T04:04:39.216Z,9.10
2018-05-03T04:07:06.658Z,9.37
2018-05-03T04:09:34.111Z,9.90
2018-05-03T04:12:02.363Z,9.27
2018-05-03T04:14:29.809Z,8.60
2018-05-03T04:16:57.287Z,8.50
2018-05-03T04:19:36.832Z,8.47
2018-05-03T04:22:16.158Z,9.70
2018-05-03T04:24:55.383Z,8.40
2018-05-03T04:27:22.838Z,8.70
2018-05-03T04:29:50.303Z,8.60
2018-05-03T04:32:17.776Z,8.23
2018-05-03T04:34:45.210Z,8.90
2018-05-03T04:37:12.674Z,8.43
2018-05-03T04:39:40.155Z,8.80
2018-05-03T04:42:07.607Z,8.37
2018-05-03T04:44:35.049Z,8.60
2018-05-03T04:47:02.549Z,7.53
2018-05-03T04:49:29.947Z,8.70
2018-05-03T04:51:57.410Z,8.23
2018-05-03T04:54:24.850Z,8.73
2018-05-03T04:56:52.297Z,8.47
2018-05-03T04:59:19.756Z,9.17
2018-05-03T05:01:47.282Z,8.10
2018-05-03T05:04:14.737Z,8.13
2018-05-03T05:06:42.176Z,7.93
2018-05-03T05:09:09.615Z,9.17
2018-05-03T05:11:37.076Z,8.23
2018-05-03T05:14:04.539Z,7.93
2018-05-03T05:16:32.018Z,7.47
2018-05-03T05:19:00.235Z,8.40
2018-05-03T05:21:27.674Z,8.60
2018-05-03T05:23:55.371Z,8.13
2018-05-03T05:26:22.829Z,8.30
2018-05-03T05:28:50.289Z,8.23
2018-05-03T05:31:17.731Z,8.10
2018-05-03T05:33:45.167Z,9.17
2018-05-03T05:36:12.639Z,9.07
2018-05-03T05:38:40.102Z,8.20
2018-05-03T05:41:07.522Z,8.37
2018-05-03T05:43:34.979Z,9.67
2018-05-03T05:46:03.186Z,9.90
2018-05-03T05:48:30.640Z,9.10
2018-05-03T05:50:58.122Z,9.73
2018-05-03T05:53:25.577Z,9.23
2018-05-03T05:55:53.014Z,8.80
2018-05-03T05:58:20.459Z,9.50
2018-05-03T06:00:47.944Z,8.73
2018-05-03T06:03:15.432Z,9.13
2018-05-03T06:05:43.027Z,8.27
2018-05-03T06:08:10.506Z,9.30
2018-05-03T06:10:37.969Z,9.03
2018-05-03T06:13:05.444Z,8.93
2018-05-03T06:15:32.862Z,8.67
2018-05-03T06:18:00.305Z,9.00
2018-05-03T06:20:27.781Z,9.53
2018-05-03T06:22:55.237Z,9.10
2018-05-03T06:25:22.710Z,9.30
2018-05-03T06:27:50.219Z,9.47
2018-05-03T06:30:17.688Z,8.77
2018-05-03T06:32:45.122Z,8.63
2018-05-03T06:35:12.552Z,8.97
2018-05-03T06:37:40.007Z,9.00
2018-05-03T06:40:07.476Z,9.10
2018-05-03T06:42:34.906Z,9.07
2018-05-03T06:45:02.333Z,8.57
2018-05-03T06:47:29.778Z,10.30
2018-05-03T06:49:58.229Z,8.40
2018-05-03T06:52:25.674Z,8.37
2018-05-03T06:54:53.126Z,9.50
2018-05-03T06:57:20.610Z,8.80
2018-05-03T06:59:48.893Z,8.50
2018-05-03T07:02:16.319Z,8.90
2018-05-03T07:04:43.775Z,9.13
2018-05-03T07:07:11.207Z,8.73
2018-05-03T07:09:38.645Z,8.67
2018-05-03T07:12:06.852Z,9.20
2018-05-03T07:14:34.294Z,8.03
2018-05-03T07:17:01.725Z,8.30
2018-05-03T07:19:29.170Z,8.93
2018-05-03T07:21:56.615Z,8.53
2018-05-03T07:24:24.037Z,8.30
2018-05-03T07:26:51.493Z,8.80
2018-05-03T07:29:18.943Z,8.87
2018-05-03T07:31:46.365Z,8.20
2018-05-03T07:34:14.554Z,8.40
2018-05-03T07:36:41.986Z,8.60
2018-05-03T07:39:09.428Z,7.67
2018-05-03T07:41:36.852Z,8.20
2018-05-03T07:44:04.341Z,7.37
2018-05-03T07:46:31.813Z,7.47
2018-05-03T07:48:59.270Z,7.17
2018-05-03T07:51:26.691Z,7.10
2018-05-03T07:53:54.141Z,6.83
2018-05-03T07:56:21.681Z,7.20
2018-05-03T07:58:49.138Z,8.90
2018-05-03T08:01:16.567Z,7.70
2018-05-03T08:03:44.006Z,8.17
2018-05-03T08:06:11.430Z,8.03
2018-05-03T08:08:38.907Z,7.40
2018-05-03T08:11:06.348Z,8.80
2018-05-03T08:13:33.851Z,7.90
2018-05-03T08:16:01.431Z,7.17
2018-05-03T08:18:29.124Z,8.00
2018-05-03T08:20:56.578Z,7.10
2018-05-03T08:23:24.040Z,9.40
2018-05-03T08:25:51.459Z,8.07
2018-05-03T08:28:18.967Z,8.00
2018-05-03T08:30:46.433Z,7.67
2018-05-03T08:33:13.898Z,10.17
2018-05-03T08:35:41.377Z,8.37
2018-05-03T08:38:08.850Z,9.43
2018-05-03T08:40:36.499Z,8.20
2018-05-03T08:43:03.965Z,7.47
2018-05-03T08:45:31.415Z,8.33
2018-05-03T08:47:58.867Z,7.97
2018-05-03T08:50:26.348Z,8.20
2018-05-03T08:52:53.836Z,7.57
2018-05-03T08:55:21.289Z,7.47
2018-05-03T08:57:48.796Z,7.30
2018-05-03T09:00:16.269Z,7.60
2018-05-03T09:02:43.868Z,7.10
2018-05-03T09:05:12.064Z,8.27
2018-05-03T09:07:39.580Z,6.80
2018-05-03T09:10:06.976Z,9.60
2018-05-03T09:12:35.278Z,8.37
2018-05-03T09:15:02.712Z,8.90
2018-05-03T09:17:30.194Z,9.77
2018-05-03T09:19:57.656Z,8.70
2018-05-03T09:22:25.154Z,9.27
2018-05-03T09:24:52.551Z,12.93
2018-05-03T09:27:20.002Z,8.40
2018-05-03T09:29:47.441Z,8.70
2018-05-03T09:32:14.878Z,8.43
2018-05-03T09:34:42.326Z,9.03
2018-05-03T09:37:09.769Z,8.47
2018-05-03T09:39:38.309Z,7.80
2018-05-03T09:42:05.746Z,8.07
2018-05-03T09:44:33.215Z,8.50
2018-05-03T09:47:00.661Z,9.50
2018-05-03T09:49:28.102Z,8.97
2018-05-03T09:51:55.562Z,9.67
2018-05-03T09:54:23.001Z,8.80
2018-05-03T09:56:50.439Z,12.10
2018-05-03T09:59:17.919Z,9.27
2018-05-03T10:01:45.347Z,8.97
2018-05-03T10:04:12.813Z,9.30
2018-05-03T10:06:40.258Z,9.50
2018-05-03T10:09:07.778Z,13.70
2018-05-03T10:11:35.206Z,9.07
2018-05-03T10:14:02.630Z,8.70
2018-05-03T10:16:30.094Z,9.57
2018-05-03T10:18:57.665Z,11.50
2018-05-03T10:21:25.113Z,10.00
2018-05-03T10:23:52.554Z,13.37
2018-05-03T10:26:20.002Z,8.97
2018-05-03T10:28:47.430Z,8.80
2018-05-03T10:31:14.890Z,9.37
2018-05-03T10:33:42.355Z,9.60
2018-05-03T10:36:09.846Z,8.93
2018-05-03T10:38:37.204Z,8.80
2018-05-03T10:41:04.650Z,9.40
2018-05-03T10:43:32.202Z,10.57
2018-05-03T10:45:59.674Z,11.13
2018-05-03T10:48:27.522Z,11.67
2018-05-03T10:50:55.147Z,10.37
2018-05-03T10:53:22.574Z,10.40
2018-05-03T10:55:50.796Z,10.40
2018-05-03T10:58:18.258Z,9.30
2018-05-03T11:00:45.724Z,8.50
2018-05-03T11:03:13.167Z,9.33
2018-05-03T11:05:40.621Z,8.80
2018-05-03T11:08:08.073Z,9.33
2018-05-03T11:10:35.561Z,9.70
2018-05-03T11:13:03.154Z,11.40
2018-05-03T11:15:30.619Z,9.90
2018-05-03T11:17:58.883Z,10.67
2018-05-03T11:20:26.402Z,8.70
2018-05-03T11:22:54.156Z,10.27
2018-05-03T11:25:21.593Z,10.00
2018-05-03T11:27:49.790Z,9.67
2018-05-03T11:30:17.272Z,10.17
2018-05-03T11:32:44.689Z,9.60
2018-05-03T11:35:12.149Z,10.07
2018-05-03T11:37:39.589Z,9.70
2018-05-03T11:40:07.078Z,9.83
2018-05-03T11:42:34.576Z,10.17
2018-05-03T11:45:01.995Z,9.77
2018-05-03T11:47:29.446Z,10.07
2018-05-03T11:49:56.893Z,10.23
2018-05-03T11:52:24.371Z,9.20
2018-05-03T11:54:51.831Z,10.43
2018-05-03T11:57:19.292Z,9.93
2018-05-03T11:59:46.809Z,9.90
2018-05-03T12:02:14.302Z,10.60
2018-05-03T12:04:41.752Z,10.50
2018-05-03T12:07:09.256Z,8.50
2018-05-03T12:09:36.772Z,15.10
2018-05-03T12:12:04.234Z,10.30
2018-05-03T12:14:31.698Z,10.97
2018-05-03T12:16:59.210Z,9.10
2018-05-03T12:19:26.709Z,9.70
2018-05-03T12:21:54.159Z,10.20
2018-05-03T12:24:21.666Z,10.07
2018-05-03T12:26:49.693Z,9.13
2018-05-03T12:29:17.174Z,9.33
2018-05-03T12:31:44.628Z,10.27
2018-05-03T12:34:12.136Z,8.07
2018-05-03T12:36:39.629Z,9.83
2018-05-03T12:39:07.070Z,10.93
2018-05-03T12:41:34.752Z,10.07
2018-05-03T12:44:02.215Z,10.10
2018-05-03T12:46:29.720Z,10.03
2018-05-03T12:48:57.153Z,9.87
2018-05-03T12:51:24.650Z,9.50
2018-05-03T12:53:52.102Z,9.10
2018-05-03T12:56:19.565Z,10.30
2018-05-03T12:58:47.115Z,10.40
2018-05-03T13:01:14.551Z,10.20
2018-05-03T13:03:42.749Z,9.73
2018-05-03T13:06:10.189Z,9.37
2018-05-03T13:08:37.634Z,8.30
2018-05-03T13:11:05.878Z,8.73
2018-05-03T13:13:33.329Z,9.80
2018-05-03T13:16:00.787Z,10.30
2018-05-03T13:18:28.245Z,11.77
2018-05-03T13:20:55.755Z,10.00
2018-05-03T13:23:23.966Z,10.07
2018-05-03T13:25:51.426Z,8.43
2018-05-03T13:28:18.906Z,11.33
2018-05-03T13:30:46.366Z,10.37
2018-05-03T13:33:13.826Z,11.87
2018-05-03T13:35:41.299Z,10.73
2018-05-03T13:38:08.715Z,9.83
2018-05-03T13:40:36.169Z,9.90
2018-05-03T13:43:03.623Z,9.73
2018-05-03T13:45:31.082Z,10.10
2018-05-03T13:47:58.550Z,10.43
2018-05-03T13:50:25.990Z,10.97
2018-05-03T13:52:53.481Z,10.20
2018-05-03T13:55:20.922Z,10.80
2018-05-03T13:57:48.382Z,10.53
2018-05-03T14:00:15.822Z,10.40
2018-05-03T14:02:43.322Z,9.47
2018-05-03T14:05:10.771Z,9.57
2018-05-03T14:07:38.251Z,10.90
2018-05-03T14:10:05.682Z,11.30
2018-05-03T14:12:33.130Z,10.00
2018-05-03T14:15:00.658Z,8.93
2018-05-03T14:17:28.216Z,8.77
2018-05-03T14:19:55.633Z,8.93
2018-05-03T14:22:23.852Z,11.40
2018-05-03T14:24:51.319Z,9.53
2018-05-03T14:27:18.783Z,9.00
2018-05-03T14:29:46.222Z,9.03
2018-05-03T14:32:13.676Z,7.80
2018-05-03T14:34:41.897Z,9.60
2018-05-03T14:37:09.334Z,9.20
2018-05-03T14:39:36.786Z,9.03
2018-05-03T14:42:04.677Z,9.73
2018-05-03T14:44:32.129Z,8.40
2018-05-03T14:46:59.550Z,9.40
2018-05-03T14:49:27.030Z,9.23
2018-05-03T14:51:54.559Z,10.40
2018-05-03T14:54:21.989Z,10.60
2018-05-03T14:56:49.457Z,11.57
2018-05-03T14:59:16.910Z,10.50
2018-05-03T15:01:44.354Z,11.33
2018-05-03T15:04:11.795Z,11.20
2018-05-03T15:06:39.333Z,11.47
2018-05-03T15:09:07.464Z,12.33
2018-05-03T15:11:34.910Z,12.00
2018-05-03T15:14:02.625Z,13.20
2018-05-03T15:16:30.088Z,12.43
2018-05-03T15:18:57.634Z,13.07
2018-05-03T15:21:25.103Z,13.83
2018-05-03T15:23:52.530Z,14.20
2018-05-03T15:26:20.206Z,13.50
2018-05-03T15:28:47.683Z,13.80
2018-05-03T15:31:15.134Z,13.53
2018-05-03T15:33:42.609Z,15.03
2018-05-03T15:36:10.033Z,16.07
2018-05-03T15:38:37.481Z,17.60
2018-05-03T15:41:04.914Z,19.33
2018-05-03T15:43:32.374Z,20.73
2018-05-03T15:45:59.836Z,19.50
2018-05-03T15:48:27.318Z,22.37
2018-05-03T15:50:54.755Z,20.17
2018-05-03T15:53:22.201Z,23.03
2018-05-03T15:55:49.643Z,24.07
2018-05-03T15:58:17.087Z,22.47
2018-05-03T16:00:44.554Z,23.23
2018-05-03T16:03:12.002Z,23.97
2018-05-03T16:05:40.203Z,25.93
2018-05-03T16:08:07.663Z,23.87
2018-05-03T16:10:35.116Z,23.90
2018-05-03T16:13:02.563Z,28.77
2018-05-03T16:15:29.999Z,25.73
2018-05-03T16:17:57.458Z,27.43
2018-05-03T16:20:24.895Z,26.17
2018-05-03T16:22:52.325Z,26.80
2018-05-03T16:25:19.774Z,26.90
2018-05-03T16:27:47.226Z,26.80
2018-05-03T16:30:14.675Z,26.00
2018-05-03T16:32:42.144Z,26.40
2018-05-03T16:35:09.614Z,25.00
2018-05-03T16:37:37.121Z,25.10
2018-05-03T16:40:04.724Z,24.20
2018-05-03T16:42:32.310Z,24.07
2018-05-03T16:44:59.768Z,25.70
2018-05-03T16:47:27.227Z,25.40
2018-05-03T16:49:54.711Z,23.90
2018-05-03T16:52:22.218Z,23.80
2018-05-03T16:54:49.649Z,23.23
2018-05-03T16:57:17.145Z,22.80
2018-05-03T16:59:44.633Z,20.83
2018-05-03T17:02:12.107Z,22.87
2018-05-03T17:04:40.332Z,23.50
2018-05-03T17:07:07.790Z,21.50
2018-05-03T17:09:35.260Z,20.90
2018-05-03T17:12:02.722Z,22.73
2018-05-03T17:14:30.215Z,21.13
2018-05-03T17:16:57.690Z,22.10
2018-05-03T17:19:25.155Z,22.20
2018-05-03T17:21:52.622Z,20.33
2018-05-03T17:24:20.122Z,21.20
2018-05-03T17:26:47.755Z,19.97
2018-05-03T17:29:15.310Z,22.30
2018-05-03T17:31:42.824Z,19.57
2018-05-03T17:34:11.106Z,18.30
2018-05-03T17:36:38.693Z,19.57
2018-05-03T17:39:06.212Z,19.53
2018-05-03T17:41:33.619Z,18.47
2018-05-03T17:44:02.148Z,19.73
2018-05-03T17:46:29.629Z,18.70
2018-05-03T17:48:57.086Z,19.03
2018-05-03T17:51:24.609Z,22.20
2018-05-03T17:53:52.005Z,19.00
2018-05-03T17:56:19.442Z,19.60
2018-05-03T17:58:46.989Z,18.93
2018-05-03T18:01:14.414Z,17.73
2018-05-03T18:03:41.911Z,18.00
2018-05-03T18:06:09.370Z,17.03
2018-05-03T18:08:37.593Z,19.00
2018-05-03T18:11:05.047Z,18.50
2018-05-03T18:13:32.553Z,17.80
2018-05-03T18:16:00.000Z,19.80
2018-05-03T18:18:27.439Z,19.20
2018-05-03T18:20:54.896Z,18.20
2018-05-03T18:23:22.374Z,17.10
2018-05-03T18:25:49.967Z,18.10
2018-05-03T18:28:17.475Z,17.20
2018-05-03T18:30:45.030Z,18.20
2018-05-03T18:33:12.518Z,17.23
2018-05-03T18:35:39.962Z,18.07
2018-05-03T18:38:07.517Z,18.43
2018-05-03T18:40:34.919Z,17.80
2018-05-03T18:43:02.381Z,17.10
2018-05-03T18:45:29.870Z,16.63
2018-05-03T18:47:57.308Z,16.47
2018-05-03T18:50:24.792Z,17.27
2018-05-03T18:52:52.474Z,17.23
2018-05-03T18:55:19.968Z,15.60
2018-05-03T18:57:47.426Z,16.00
2018-05-03T19:00:14.878Z,15.63
2018-05-03T19:02:42.320Z,15.13
2018-05-03T19:05:09.773Z,15.30
2018-05-03T19:07:37.257Z,16.07
2018-05-03T19:10:04.695Z,17.60
2018-05-03T19:12:32.157Z,16.10
2018-05-03T19:14:59.623Z,15.03
2018-05-03T19:17:27.060Z,15.67
2018-05-03T19:19:55.299Z,15.77
2018-05-03T19:22:22.747Z,15.20
2018-05-03T19:24:50.203Z,16.30
2018-05-03T19:27:17.659Z,14.97
2018-05-03T19:29:45.111Z,15.53
2018-05-03T19:32:12.578Z,15.37
2018-05-03T19:34:40.036Z,15.73
2018-05-03T19:37:07.603Z,16.07
2018-05-03T19:39:35.075Z,14.63
2018-05-03T19:42:02.551Z,15.30
2018-05-03T19:44:30.882Z,13.87
2018-05-03T19:46:58.363Z,14.80
2018-05-03T19:49:25.827Z,15.37
2018-05-03T19:51:53.274Z,13.70
2018-05-03T19:54:20.731Z,15.33
2018-05-03T19:56:48.192Z,13.63
2018-05-03T19:59:15.659Z,13.63
2018-05-03T20:01:43.160Z,15.60
2018-05-03T20:04:10.615Z,13.80
2018-05-03T20:06:38.071Z,13.57
2018-05-03T20:09:05.550Z,13.90
2018-05-03T20:11:33.032Z,13.07
2018-05-03T20:14:00.475Z,13.80
2018-05-03T20:16:27.963Z,13.73
2018-05-03T20:18:55.411Z,13.10
2018-05-03T20:21:23.056Z,13.50
2018-05-03T20:23:50.512Z,14.50
2018-05-03T20:26:17.953Z,14.20
2018-05-03T20:28:45.416Z,14.73
2018-05-03T20:31:12.868Z,15.80
2018-05-03T20:33:41.303Z,15.23
2018-05-03T20:36:08.774Z,17.27
2018-05-03T20:38:36.242Z,14.87
2018-05-03T20:41:03.682Z,14.90
2018-05-03T20:43:31.160Z,17.13
2018-05-03T20:45:58.691Z,17.50
2018-05-03T20:48:26.034Z,16.63
2018-05-03T20:50:53.506Z,17.90
2018-05-03T20:53:20.993Z,16.13
2018-05-03T20:55:48.423Z,16.80
2018-05-03T20:58:15.903Z,17.87
2018-05-03T21:00:43.443Z,16.43
2018-05-03T21:03:11.685Z,17.13
2018-05-03T21:05:39.199Z,16.90
2018-05-03T21:08:06.665Z,17.10
2018-05-03T21:10:34.147Z,18.13
2018-05-03T21:13:01.611Z,17.80
2018-05-03T21:15:29.071Z,18.43
2018-05-03T21:17:56.528Z,17.30
2018-05-03T21:20:23.990Z,17.83
2018-05-03T21:22:51.435Z,18.77
2018-05-03T21:25:18.883Z,18.73
2018-05-03T21:27:46.545Z,17.00
2018-05-03T21:30:13.990Z,18.20
2018-05-03T21:32:41.535Z,17.10
2018-05-03T21:35:09.000Z,18.50
2018-05-03T21:37:38.169Z,17.83
2018-05-03T21:40:05.657Z,18.70
2018-05-03T21:42:33.098Z,17.73
2018-05-03T21:45:00.534Z,17.77
2018-05-03T21:47:27.997Z,17.23
2018-05-03T21:49:56.225Z,19.87
2018-05-03T21:52:23.767Z,18.13
2018-05-03T21:54:51.146Z,18.77
2018-05-03T21:57:18.614Z,19.07
2018-05-03T21:59:46.054Z,18.90
2018-05-03T22:02:13.515Z,17.63
2018-05-03T22:04:40.994Z,19.83
2018-05-03T22:07:08.442Z,17.87
2018-05-03T22:09:35.911Z,18.80
2018-05-03T22:12:03.503Z,19.27
2018-05-03T22:14:30.978Z,19.77
2018-05-03T22:16:58.389Z,19.60
2018-05-03T22:19:25.847Z,18.83
2018-05-03T22:21:53.289Z,19.67
2018-05-03T22:24:20.742Z,20.00
2018-05-03T22:26:48.207Z,19.20
2018-05-03T22:29:15.637Z,20.67
2018-05-03T22:31:43.094Z,18.50
2018-05-03T22:34:10.636Z,19.80
2018-05-03T22:36:38.100Z,18.83
2018-05-03T22:39:05.578Z,19.33
2018-05-03T22:41:33.055Z,20.07
2018-05-03T22:44:00.506Z,18.40
2018-05-03T22:46:27.973Z,20.67
2018-05-03T22:48:55.433Z,20.40
2018-05-03T22:51:22.893Z,18.33
2018-05-03T22:53:50.364Z,20.40
2018-05-03T22:56:17.827Z,20.30
2018-05-03T22:58:45.295Z,19.47
2018-05-03T23:01:12.747Z,19.77
2018-05-03T23:03:40.220Z,17.60
2018-05-03T23:06:07.658Z,18.57
2018-05-03T23:08:35.118Z,18.37
2018-05-03T23:11:02.589Z,19.20
2018-05-03T23:13:30.059Z,18.40
2018-05-03T23:15:57.535Z,17.50
2018-05-03T23:18:25.163Z,17.40
2018-05-03T23:20:52.634Z,16.83
2018-05-03T23:23:20.104Z,17.47
2018-05-03T23:25:47.580Z,17.83
2018-05-03T23:28:15.051Z,21.33
2018-05-03T23:30:42.514Z,17.30
2018-05-03T23:33:09.976Z,18.00
2018-05-03T23:35:37.439Z,16.50
2018-05-03T23:38:04.919Z,17.47
2018-05-03T23:40:32.611Z,16.17
2018-05-03T23:43:00.111Z,16.53
2018-05-03T23:45:27.567Z,14.77
2018-05-03T23:47:55.027Z,15.27
2018-05-03T23:50:22.513Z,15.80
2018-05-03T23:52:49.993Z,16.10
2018-05-03T23:55:17.568Z,16.17
2018-05-03T23:57:45.031Z,14.60
